Ipupiara, Brazil
Current Conditions -  °F | °C
As of 8:00 AM on Thursday 18 Dec 2014 (Local Time) from SBPL Reporting Station
Scattered Clouds Scattered Clouds  
Wind Chill: 81°   Ceiling: Unl
Heat Index: 87°   Visibility: 6mi
Dew Point: 77°   Wind: 3mph
Humidity: 89%   Direction: 50°NE
Pressure: 29.97"   Gusts: NA
Location:  11.82°S, 42.61°W
Report Text: SBPL 181100Z 05003KT 9999 FEW020 SCT070 27/25 Q1015
Loading
Personal Weather Stations






























Interactive Weather Map New forecast layout! Learn more

10-Day Weather Forecast

Advertisements
Track Severe Weather on mobile